Huntingburg, IN

9:59 AM EDT on March 27, 2017 (GMT -0400)
Huntingburg

Weather History for KHNB - December, 2012

Change the Weather History Date:

Monday, December 10, 2012

  Actual Average Record
Temperature  
Mean Temperature 40 °F -  
Max Temperature 48 °F 42 °F 57 °F (1996)
Min Temperature 30 °F 30 °F 10 °F (2005)
Degree Days  
Heating Degree Days 24    
Moisture  
Dew Point 31 °F    
Average Humidity 78    
Maximum Humidity 93    
Minimum Humidity 75    
Precipitation  
Precipitation 1.12 in - - ()
Sea Level Pressure  
Sea Level Pressure 29.87 in    
Wind  
Wind Speed 12 mph (NW)    
Max Wind Speed 20 mph    
Max Gust Speed 25 mph    
Visibility 10 miles    
Events      
Averages and records for this station are not official NWS values.
T = Trace of Precipitation, MM = Missing Value Source: NWS Daily Summary

Daily Weather History Graph

Daily Weather History Graph

Search for Another Location

Airport or City:

Trip Planner

Search our weather history database for the weather conditions in past years. The results will help you decide how hot, cold, wet, or windy it might be!

Date:

Astronomy

Dec. 10, 2012 Rise Set
Actual Time 7:54 AM EST 5:27 PM EST
Civil Twilight 7:24 AM EST 5:57 PM EST
Nautical Twilight 6:51 AM EST 6:30 PM EST
Astronomical Twilight 6:19 AM EST 7:02 PM EST
Moon 4:38 AM EST (12/10) 3:15 PM EST (12/10)
Length of Visible Light 10h 32m
Length of Day
9h 33m
Waning Crescent, 10% of the Moon is Illuminated
Dec 10
Waning Crescent
Dec 13
New
Dec 20
First Quarter
Dec 28
Full
Jan 4
Last Quarter

Hourly Weather History & Observations

Time (EST) Temp. Windchill Dew Point Humidity Pressure Visibility Wind Dir Wind Speed Gust Speed Precip Events Conditions
12:15 AM 51.8 °F - 46.4 °F 82% 29.78 in 10.0 mi NW 11.5 mph 16.1 mph N/A   Overcast
12:35 AM 50.0 °F - 46.4 °F 87% 29.79 in 8.0 mi NNW 13.8 mph - N/A   Overcast
12:55 AM 48.2 °F - 46.4 °F 93% 29.79 in 7.0 mi NW 16.1 mph 19.6 mph N/A   Overcast
1:15 AM 48.2 °F - 44.6 °F 87% 29.79 in 10.0 mi NW 15.0 mph - N/A   Overcast
1:35 AM 46.4 °F 39.8 °F 42.8 °F 87% 29.80 in 10.0 mi NW 16.1 mph 20.7 mph N/A   Overcast
1:55 AM 46.4 °F 39.8 °F 42.8 °F 87% 29.81 in 10.0 mi NW 16.1 mph 20.7 mph N/A   Overcast
2:15 AM 46.4 °F 40.7 °F 42.8 °F 87% 29.81 in 6.0 mi NW 12.7 mph 17.3 mph N/A   Overcast
2:55 AM 44.6 °F 38.4 °F 39.2 °F 81% 29.82 in 10.0 mi NNW 12.7 mph 17.3 mph N/A   Overcast
3:15 AM 44.6 °F 37.8 °F 39.2 °F 81% 29.81 in 10.0 mi NNW 15.0 mph 18.4 mph N/A   Overcast
3:55 AM 42.8 °F 35.8 °F 37.4 °F 81% 29.80 in 10.0 mi NW 13.8 mph 19.6 mph N/A   Overcast
4:15 AM 42.8 °F 36.2 °F 37.4 °F 81% 29.80 in 10.0 mi NW 12.7 mph - N/A   Overcast
4:35 AM 42.8 °F 36.2 °F 37.4 °F 81% 29.79 in 10.0 mi NW 12.7 mph - N/A   Overcast
4:55 AM 42.8 °F 36.6 °F 35.6 °F 76% 29.80 in 10.0 mi NW 11.5 mph - N/A   Overcast
5:15 AM 42.8 °F 37.0 °F 35.6 °F 76% 29.80 in 10.0 mi NNW 10.4 mph - N/A   Overcast
5:35 AM 42.8 °F 38.0 °F 35.6 °F 76% 29.79 in 10.0 mi NNW 8.1 mph - N/A   Scattered Clouds
5:55 AM 41.0 °F 35.8 °F 33.8 °F 76% 29.79 in 10.0 mi NNW 8.1 mph - N/A   Clear
6:15 AM 41.0 °F 35.8 °F 33.8 °F 76% 29.79 in 10.0 mi NNW 8.1 mph - N/A   Clear
6:35 AM 41.0 °F 35.8 °F 33.8 °F 76% 29.79 in 10.0 mi NNW 8.1 mph - N/A   Clear
6:55 AM 41.0 °F 37.1 °F 35.6 °F 81% 29.80 in 10.0 mi NW 5.8 mph - N/A   Partly Cloudy
7:15 AM 41.0 °F 37.1 °F 35.6 °F 81% 29.81 in 10.0 mi NW 5.8 mph - N/A   Scattered Clouds
7:35 AM 41.0 °F 38.0 °F 35.6 °F 81% 29.81 in 10.0 mi NW 4.6 mph - N/A   Mostly Cloudy
8:15 AM 41.0 °F 36.4 °F 35.6 °F 81% 29.82 in 10.0 mi WNW 6.9 mph - N/A   Overcast
8:35 AM 41.0 °F 35.8 °F 35.6 °F 81% 29.81 in 10.0 mi NW 8.1 mph - N/A   Overcast
8:55 AM 41.0 °F 34.3 °F 35.6 °F 81% 29.81 in 10.0 mi NW 11.5 mph - N/A   Overcast
9:15 AM 41.0 °F 34.7 °F 35.6 °F 81% 29.81 in 10.0 mi NW 10.4 mph - N/A   Overcast
9:35 AM 39.2 °F 31.2 °F 33.8 °F 81% 29.82 in 9.0 mi NW 13.8 mph 21.9 mph N/A   Overcast
9:55 AM 37.4 °F 27.8 °F 30.2 °F 75% 29.83 in 9.0 mi NW 17.3 mph 24.2 mph N/A   Overcast
10:15 AM 35.6 °F 27.1 °F 28.4 °F 75% 29.85 in 7.0 mi NW 12.7 mph 23.0 mph N/A   Overcast
10:35 AM 33.8 °F 22.5 °F 28.4 °F 81% 29.86 in 7.0 mi NW 19.6 mph 25.3 mph N/A   Overcast
10:55 AM 33.8 °F 23.2 °F 28.4 °F 81% 29.87 in 9.0 mi NW 17.3 mph 23.0 mph N/A   Overcast
11:35 AM 33.8 °F 23.5 °F 26.6 °F 75% 29.87 in 10.0 mi NNW 16.1 mph 23.0 mph N/A   Overcast
11:55 AM 33.8 °F 23.5 °F 26.6 °F 75% 29.86 in 10.0 mi NW 16.1 mph 20.7 mph N/A   Overcast
12:15 PM 33.8 °F 23.9 °F 26.6 °F 75% 29.87 in 10.0 mi NW 15.0 mph - N/A   Overcast
12:35 PM 32.0 °F 23.0 °F 26.6 °F 80% 29.85 in 10.0 mi NNW 11.5 mph 17.3 mph N/A   Overcast
12:55 PM 32.0 °F 23.0 °F 26.6 °F 80% 29.86 in 10.0 mi NW 11.5 mph 16.1 mph N/A   Overcast
1:15 PM 32.0 °F 21.6 °F 26.6 °F 80% 29.86 in 10.0 mi NW 15.0 mph - N/A   Overcast
1:35 PM 32.0 °F 22.5 °F 26.6 °F 80% 29.85 in 10.0 mi NW 12.7 mph - N/A   Overcast
1:55 PM 32.0 °F 21.6 °F 24.8 °F 75% 29.86 in 10.0 mi NW 15.0 mph 21.9 mph N/A   Overcast
2:15 PM 32.0 °F 21.6 °F 24.8 °F 75% 29.86 in 10.0 mi NW 15.0 mph 20.7 mph N/A   Overcast
2:35 PM 32.0 °F 23.0 °F 24.8 °F 75% 29.85 in 10.0 mi NNW 11.5 mph - N/A   Overcast
2:55 PM 32.0 °F 23.6 °F 24.8 °F 75% 29.85 in 10.0 mi NW 10.4 mph - N/A   Overcast
3:15 PM 32.0 °F 23.0 °F 24.8 °F 75% 29.86 in 10.0 mi NW 11.5 mph - N/A   Overcast
3:35 PM 33.8 °F 27.0 °F 26.6 °F 75% 29.86 in 10.0 mi NNW 8.1 mph - N/A   Overcast
3:55 PM 33.8 °F 25.8 °F 26.6 °F 75% 29.86 in 10.0 mi NW 10.4 mph - N/A   Overcast
4:15 PM 32.0 °F 23.6 °F 24.8 °F 75% 29.87 in 10.0 mi WNW 10.4 mph - N/A   Overcast
4:35 PM 32.0 °F 22.5 °F 26.6 °F 80% 29.88 in 10.0 mi NW 12.7 mph - N/A   Overcast
4:55 PM 32.0 °F 21.2 °F 26.6 °F 80% 29.89 in 10.0 mi NW 16.1 mph 20.7 mph N/A   Overcast
5:15 PM 32.0 °F 22.1 °F 24.8 °F 75% 29.90 in 10.0 mi NW 13.8 mph 20.7 mph N/A   Overcast
5:35 PM 32.0 °F 22.5 °F 24.8 °F 75% 29.90 in 10.0 mi NNW 12.7 mph 16.1 mph N/A   Overcast
5:55 PM 32.0 °F 23.0 °F 24.8 °F 75% 29.91 in 10.0 mi NW 11.5 mph - N/A   Overcast
6:15 PM 30.2 °F 21.9 °F 24.8 °F 80% 29.92 in 10.0 mi NW 9.2 mph - N/A   Overcast
6:35 PM 32.0 °F 22.5 °F 24.8 °F 75% 29.94 in 10.0 mi WNW 12.7 mph - N/A   Overcast
6:55 PM 32.0 °F 24.2 °F 24.8 °F 75% 29.95 in 10.0 mi NW 9.2 mph - N/A   Overcast
7:15 PM 32.0 °F 24.2 °F 24.8 °F 75% 29.95 in 10.0 mi NW 9.2 mph - N/A   Overcast
7:35 PM 32.0 °F 23.6 °F 24.8 °F 75% 29.97 in 10.0 mi NW 10.4 mph - N/A   Overcast
7:55 PM 32.0 °F 23.0 °F 24.8 °F 75% 29.98 in 10.0 mi NW 11.5 mph - N/A   Overcast
8:15 PM 32.0 °F 23.6 °F 24.8 °F 75% 29.99 in 10.0 mi NW 10.4 mph - N/A   Overcast
8:35 PM 32.0 °F 22.5 °F 24.8 °F 75% 29.99 in 10.0 mi NW 12.7 mph 16.1 mph N/A   Overcast
8:55 PM 32.0 °F 23.6 °F 24.8 °F 75% 29.99 in 10.0 mi NW 10.4 mph - N/A   Overcast
9:15 PM 32.0 °F 23.0 °F 24.8 °F 75% 29.99 in 10.0 mi NW 11.5 mph - N/A   Overcast
9:55 PM 32.0 °F 24.2 °F 24.8 °F 75% 30.00 in 10.0 mi NW 9.2 mph - N/A   Overcast
10:15 PM 32.0 °F 24.2 °F 24.8 °F 75% 30.01 in 10.0 mi WNW 9.2 mph - N/A   Overcast
10:35 PM 32.0 °F 24.2 °F 24.8 °F 75% 30.02 in 10.0 mi NW 9.2 mph - N/A   Overcast
10:55 PM 32.0 °F 24.2 °F 24.8 °F 75% 30.02 in 10.0 mi NW 9.2 mph - N/A   Overcast
11:15 PM 32.0 °F 24.8 °F 24.8 °F 75% 30.02 in 10.0 mi NW 8.1 mph - N/A   Overcast
11:35 PM 30.2 °F 22.6 °F 24.8 °F 80% 30.03 in 10.0 mi WNW 8.1 mph - N/A   Overcast
11:55 PM 30.2 °F 23.4 °F 24.8 °F 80% 30.03 in 10.0 mi NW 6.9 mph - N/A   Overcast